EDDB/SXF METAR and TAF weather

Enter ICAO airport designator
Station Type Date Time Source
EDDB METAR 2021/03/02 02:50 UTC NOAA

EDDB 020250Z 24003KT 4600 R07R/0800U BCFG BR FEW001 M02/M03 Q1034 TEMPO 2000 BKN001


Station Type Date Time Source
EDDB Decoded METAR 2021/03/02 02:50 UTC NOAA

Berlin-Schoenefeld, Germany (EDDB) 52-23N 013-31E 50M
Mar 01, 2021 - 09:50 PM EST / 2021.03.02 0250 UTC
Wind: from the WSW (240 degrees) at 3 MPH (3 KT):0
Visibility: 2 mile(s):0
Sky conditions: mostly clear
Weather: patches of fog; mist
Temperature: 28 F (-2 C)
Dew Point: 26 F (-3 C)
Relative Humidity: 92%
Pressure (altimeter): 30.53 in. Hg (1034 hPa)
ob: EDDB 020250Z 24003KT 4600 R07R/0800U BCFG BR FEW001 M02/M03 Q1034 TEMPO 2000 BKN001
cycle: 3

Station Type Date Time Source
EDDB TAF 2021/03/01 18:27 UTC NOAA

TAF TAF EDDB 011700Z 0118/0218 VRB02KT CAVOK
BECMG 0122/0201 1000 BCFG
TEMPO 0200/0203 BKN004
BECMG 0201/0204 0400 FZFG
TEMPO 0203/0210 0250 FZFG BKN001
BECMG 0208/0212 CAVOK

Example: see airport list